createdAt,value
2023-03-17T00:02:18.350Z,101149.00
2023-03-17T00:04:53.406Z,101148.40
2023-03-17T00:07:28.054Z,101145.00
2023-03-17T00:10:02.465Z,101140.60
2023-03-17T00:12:36.974Z,101146.80
2023-03-17T00:15:15.134Z,101144.40
2023-03-17T00:17:50.894Z,101144.40
2023-03-17T00:20:31.198Z,101141.60
2023-03-17T00:23:06.692Z,101141.20
2023-03-17T00:25:43.285Z,101140.00
2023-03-17T00:28:23.588Z,101144.40
2023-03-17T00:31:05.183Z,101143.20
2023-03-17T00:33:40.631Z,101144.20
2023-03-17T00:36:22.790Z,101150.80
2023-03-17T00:38:57.374Z,101145.40
2023-03-17T00:41:32.899Z,101142.00
2023-03-17T00:44:07.646Z,101143.00
2023-03-17T00:46:42.573Z,101140.60
2023-03-17T00:49:22.183Z,101131.00
2023-03-17T00:51:56.461Z,101120.80
2023-03-17T00:54:30.741Z,101115.20
2023-03-17T00:57:06.829Z,101103.20
2023-03-17T00:59:44.184Z,101106.40
2023-03-17T01:02:18.523Z,101107.80
2023-03-17T01:05:05.588Z,101107.40
2023-03-17T01:07:47.844Z,101093.60
2023-03-17T01:10:26.546Z,101087.80
2023-03-17T01:13:02.853Z,101075.20
2023-03-17T01:15:38.673Z,101073.60
2023-03-17T01:18:17.132Z,101077.60
2023-03-17T01:20:53.295Z,101081.20
2023-03-17T01:23:27.481Z,101076.00
2023-03-17T01:26:01.964Z,101065.20
2023-03-17T01:28:37.425Z,101053.00
2023-03-17T01:31:12.694Z,101038.20
2023-03-17T01:33:47.542Z,101041.20
2023-03-17T01:36:21.878Z,101046.00
2023-03-17T01:38:57.323Z,101043.20
2023-03-17T01:41:34.378Z,101043.20
2023-03-17T01:44:12.353Z,101055.80
2023-03-17T01:46:47.583Z,101058.40
2023-03-17T01:49:29.387Z,101052.60
2023-03-17T01:52:09.604Z,101044.00
2023-03-17T01:54:50.593Z,101035.00
2023-03-17T01:57:32.670Z,101021.60
2023-03-17T02:00:13.543Z,101026.00
2023-03-17T02:02:51.012Z,101030.60
2023-03-17T02:05:32.754Z,101026.20
2023-03-17T02:08:12.865Z,101018.00
2023-03-17T02:10:49.666Z,101026.40
2023-03-17T02:13:24.514Z,101026.00
2023-03-17T02:16:00.514Z,101021.60
2023-03-17T02:18:35.298Z,101024.00
2023-03-17T02:21:36.554Z,101015.80
2023-03-17T02:24:20.839Z,101017.40
2023-03-17T02:26:57.462Z,101009.80
2023-03-17T02:29:33.761Z,101005.60
2023-03-17T02:32:10.052Z,101015.20
2023-03-17T02:34:44.320Z,101018.40
2023-03-17T02:37:19.919Z,101018.40
2023-03-17T02:39:54.261Z,101018.60
2023-03-17T02:42:29.047Z,101014.60
2023-03-17T02:45:07.099Z,101012.20
2023-03-17T02:47:41.559Z,101013.80
2023-03-17T02:50:24.580Z,101017.40
2023-03-17T02:52:58.835Z,101023.40
2023-03-17T02:55:33.002Z,101028.20
2023-03-17T02:58:07.420Z,101020.60
2023-03-17T03:00:41.845Z,101020.40
2023-03-17T03:03:16.454Z,101024.60
2023-03-17T03:05:52.064Z,101025.40
2023-03-17T03:08:26.324Z,101023.60
2023-03-17T03:11:02.631Z,101015.80
2023-03-17T03:13:37.703Z,101017.60
2023-03-17T03:16:12.672Z,101017.20
2023-03-17T03:18:47.309Z,101016.80
2023-03-17T03:21:22.176Z,101019.20
2023-03-17T03:23:57.644Z,101022.80
2023-03-17T03:26:32.236Z,101022.40
2023-03-17T03:29:06.960Z,101013.00
2023-03-17T03:31:41.184Z,101006.80
2023-03-17T03:34:15.623Z,101007.00
2023-03-17T03:36:49.990Z,101017.40
2023-03-17T03:39:24.716Z,101014.60
2023-03-17T03:41:59.004Z,101012.60
2023-03-17T03:44:33.350Z,101011.00
2023-03-17T03:47:07.742Z,101008.40
2023-03-17T03:49:42.467Z,101000.40
2023-03-17T03:52:16.940Z,101001.00
2023-03-17T03:54:51.430Z,101002.80
2023-03-17T03:57:25.741Z,101000.60
2023-03-17T04:00:00.354Z,100995.80
2023-03-17T04:02:34.428Z,100994.60
2023-03-17T04:05:10.034Z,100986.60
2023-03-17T04:07:44.942Z,100983.80
2023-03-17T04:10:19.688Z,100984.60
2023-03-17T04:12:54.148Z,100977.60
2023-03-17T04:15:28.600Z,100977.80
2023-03-17T04:18:02.830Z,100984.00
2023-03-17T04:20:37.454Z,100978.20
2023-03-17T04:23:11.956Z,100971.60
2023-03-17T04:25:47.059Z,100966.00
2023-03-17T04:28:22.535Z,100958.40
2023-03-17T04:30:56.970Z,100964.40
2023-03-17T04:33:31.189Z,100967.60
2023-03-17T04:36:06.612Z,100973.80
2023-03-17T04:38:40.928Z,100972.80
2023-03-17T04:41:15.481Z,100968.60
2023-03-17T04:43:49.971Z,100968.60
2023-03-17T04:46:24.211Z,100981.00
2023-03-17T04:48:58.776Z,100981.60
2023-03-17T04:51:33.392Z,100986.00
2023-03-17T04:54:08.339Z,100981.80
2023-03-17T04:56:42.764Z,100982.80
2023-03-17T04:59:17.472Z,100982.80
2023-03-17T05:01:51.770Z,100978.40
2023-03-17T05:04:31.763Z,100976.00
2023-03-17T05:07:07.405Z,100977.00
2023-03-17T05:09:42.706Z,100973.00
2023-03-17T05:12:18.258Z,100966.60
2023-03-17T05:14:52.603Z,100963.20
2023-03-17T05:17:27.183Z,100962.20
2023-03-17T05:20:01.589Z,100970.20
2023-03-17T05:22:36.265Z,100969.20
2023-03-17T05:25:13.302Z,100971.80
2023-03-17T05:27:47.902Z,100972.20
2023-03-17T05:30:22.938Z,100980.00
2023-03-17T05:32:57.446Z,100977.60
2023-03-17T05:35:32.231Z,100964.20
2023-03-17T05:38:06.929Z,100966.80
2023-03-17T05:40:41.299Z,100967.20
2023-03-17T05:43:15.725Z,100958.60
2023-03-17T05:45:51.718Z,100966.40
2023-03-17T05:48:26.847Z,100969.00
2023-03-17T05:51:01.467Z,100959.80
2023-03-17T05:53:36.498Z,100967.40
2023-03-17T05:56:12.933Z,100964.00
2023-03-17T05:58:47.624Z,100966.80
2023-03-17T06:01:22.007Z,100962.00
2023-03-17T06:03:56.631Z,100959.80
2023-03-17T06:06:31.148Z,100959.20
2023-03-17T06:09:06.158Z,100947.40
2023-03-17T06:11:40.447Z,100941.40
2023-03-17T06:14:15.700Z,100939.40
2023-03-17T06:16:49.795Z,100939.20
2023-03-17T06:19:24.365Z,100941.20
2023-03-17T06:21:58.718Z,100929.60
2023-03-17T06:24:33.180Z,100932.40
2023-03-17T06:27:07.679Z,100934.60
2023-03-17T06:29:41.817Z,100928.40
2023-03-17T06:32:20.729Z,100928.80
2023-03-17T06:34:55.511Z,100920.80
2023-03-17T06:37:30.403Z,100918.40
2023-03-17T06:40:06.026Z,100916.40
2023-03-17T06:42:40.176Z,100915.80
2023-03-17T06:45:16.382Z,100910.80
2023-03-17T06:47:50.836Z,100913.60
2023-03-17T06:50:25.472Z,100913.20
2023-03-17T06:52:59.762Z,100913.40
2023-03-17T06:55:34.395Z,100914.00
2023-03-17T06:58:09.434Z,100911.60
2023-03-17T07:00:45.540Z,100904.80
2023-03-17T07:03:20.545Z,100896.80
2023-03-17T07:05:55.274Z,100892.40
2023-03-17T07:08:31.004Z,100888.80
2023-03-17T07:11:05.632Z,100884.60
2023-03-17T07:13:40.917Z,100880.00
2023-03-17T07:16:19.626Z,100880.60
2023-03-17T07:18:54.185Z,100886.40
2023-03-17T07:21:28.811Z,100890.60
2023-03-17T07:24:02.940Z,100885.00
2023-03-17T07:26:37.379Z,100888.60
2023-03-17T07:29:11.602Z,100886.80
2023-03-17T07:31:46.338Z,100887.20
2023-03-17T07:34:20.787Z,100887.20
2023-03-17T07:36:55.127Z,100882.00
2023-03-17T07:39:29.369Z,100877.00
2023-03-17T07:42:03.887Z,100875.60
2023-03-17T07:44:39.925Z,100880.00
2023-03-17T07:47:15.956Z,100868.80
2023-03-17T07:49:51.326Z,100861.40
2023-03-17T07:52:25.406Z,100858.40
2023-03-17T07:54:59.941Z,100859.00
2023-03-17T07:57:34.279Z,100852.40
2023-03-17T08:00:10.835Z,100848.00
2023-03-17T08:02:59.563Z,100839.60
2023-03-17T08:05:41.619Z,100847.40
2023-03-17T08:08:16.004Z,100843.60
2023-03-17T08:10:50.922Z,100833.00
2023-03-17T08:13:25.006Z,100824.40
2023-03-17T08:15:59.637Z,100829.00
2023-03-17T08:18:34.189Z,100833.00
2023-03-17T08:21:09.222Z,100818.80
2023-03-17T08:23:43.416Z,100811.20
2023-03-17T08:26:18.702Z,100807.20
2023-03-17T08:28:53.056Z,100799.60
2023-03-17T08:31:27.276Z,100802.80
2023-03-17T08:34:02.790Z,100811.60
2023-03-17T08:36:37.265Z,100808.60
2023-03-17T08:39:11.847Z,100804.00
2023-03-17T08:41:47.257Z,100793.80
2023-03-17T08:44:21.959Z,100792.00
2023-03-17T08:46:56.510Z,100788.40
2023-03-17T08:49:31.721Z,100792.00
2023-03-17T08:52:09.327Z,100786.60
2023-03-17T08:54:43.643Z,100774.40
2023-03-17T08:57:18.130Z,100781.40
2023-03-17T08:59:52.705Z,100779.60
2023-03-17T09:02:26.874Z,100776.80
2023-03-17T09:05:01.365Z,100785.00
2023-03-17T09:07:35.818Z,100785.60
2023-03-17T09:10:15.038Z,100784.60
2023-03-17T09:12:49.156Z,100790.60
2023-03-17T09:15:23.400Z,100786.60
2023-03-17T09:17:57.858Z,100782.80
2023-03-17T09:20:33.316Z,100786.20
2023-03-17T09:23:11.887Z,100785.20
2023-03-17T09:25:46.463Z,100779.00
2023-03-17T09:28:20.772Z,100775.00
2023-03-17T09:30:58.803Z,100784.00
2023-03-17T09:33:33.644Z,100788.80
2023-03-17T09:36:08.642Z,100792.60
2023-03-17T09:38:42.738Z,100787.40
2023-03-17T09:41:50.130Z,100774.80
2023-03-17T09:44:41.272Z,100759.20
2023-03-17T09:47:41.052Z,100748.00
2023-03-17T09:50:23.430Z,100741.00
2023-03-17T09:53:03.946Z,100742.00
2023-03-17T09:55:40.097Z,100751.00
2023-03-17T09:58:15.552Z,100746.40
2023-03-17T10:00:50.701Z,100760.80
2023-03-17T10:03:28.585Z,100756.00
2023-03-17T10:06:25.221Z,100737.00
2023-03-17T10:09:08.504Z,100731.80
2023-03-17T10:11:47.367Z,100736.60
2023-03-17T10:14:45.482Z,100746.20
2023-03-17T10:17:23.213Z,100745.40
2023-03-17T10:20:05.686Z,100732.60
2023-03-17T10:22:49.337Z,100728.20
2023-03-17T10:25:29.503Z,100731.20
2023-03-17T10:28:13.532Z,100725.80
2023-03-17T10:30:47.712Z,100724.20
2023-03-17T10:33:23.865Z,100713.40
2023-03-17T10:35:58.162Z,100709.60
2023-03-17T10:38:32.596Z,100706.20
2023-03-17T10:41:15.484Z,100703.00
2023-03-17T10:43:52.144Z,100712.00
2023-03-17T10:46:30.101Z,100713.80
2023-03-17T10:49:10.896Z,100710.20
2023-03-17T10:51:48.911Z,100704.20
2023-03-17T10:54:25.859Z,100702.80
2023-03-17T10:57:08.383Z,100702.80
2023-03-17T10:59:53.533Z,100691.80
2023-03-17T11:02:37.211Z,100679.40
2023-03-17T11:05:22.478Z,100665.80
2023-03-17T11:08:11.684Z,100666.40
2023-03-17T11:10:47.181Z,100650.60
2023-03-17T11:13:22.760Z,100639.40
2023-03-17T11:16:12.005Z,100626.80
2023-03-17T11:18:48.499Z,100614.40
2023-03-17T11:21:31.149Z,100609.00
2023-03-17T11:24:15.933Z,100611.80
2023-03-17T11:27:00.833Z,100617.80
2023-03-17T11:30:08.124Z,100624.40
2023-03-17T11:32:50.561Z,100621.40
2023-03-17T11:35:45.539Z,100612.80
2023-03-17T11:38:36.477Z,100614.60
2023-03-17T11:41:45.222Z,100614.20
2023-03-17T11:45:06.163Z,100599.20
2023-03-17T11:48:08.328Z,100601.40
2023-03-17T11:50:53.297Z,100581.40
2023-03-17T11:53:52.763Z,100569.00
2023-03-17T11:56:39.159Z,100569.20
2023-03-17T11:59:27.675Z,100570.20
2023-03-17T12:02:22.927Z,100572.80
2023-03-17T12:05:05.204Z,100569.80
2023-03-17T12:07:47.521Z,100566.60
2023-03-17T12:10:28.848Z,100544.00
2023-03-17T12:13:09.447Z,100554.00
2023-03-17T12:15:51.148Z,100549.60
2023-03-17T12:18:33.117Z,100537.80
2023-03-17T12:21:18.745Z,100537.20
2023-03-17T12:23:58.590Z,100527.40
2023-03-17T12:26:40.855Z,100517.60
2023-03-17T12:29:22.062Z,100516.80
2023-03-17T12:32:04.681Z,100502.40
2023-03-17T12:34:50.960Z,100500.00
2023-03-17T12:37:27.794Z,100496.00
2023-03-17T12:40:10.542Z,100489.00
2023-03-17T12:42:57.682Z,100497.60
2023-03-17T12:45:55.970Z,100504.00
2023-03-17T12:49:02.964Z,100504.40
2023-03-17T12:51:57.320Z,100505.60
2023-03-17T12:54:35.894Z,100502.60
2023-03-17T12:57:22.287Z,100500.00
2023-03-17T13:00:07.718Z,100489.80
2023-03-17T13:02:47.052Z,100495.20
2023-03-17T13:05:34.003Z,100485.00
2023-03-17T13:08:13.731Z,100484.20
2023-03-17T13:10:50.616Z,100485.00
2023-03-17T13:13:46.273Z,100480.80
2023-03-17T13:16:39.442Z,100479.40
2023-03-17T13:19:24.868Z,100479.80
2023-03-17T13:22:37.152Z,100476.80
2023-03-17T13:25:35.102Z,100482.80
2023-03-17T13:28:42.761Z,100473.40
2023-03-17T13:31:36.854Z,100471.20
2023-03-17T13:34:20.732Z,100465.40
2023-03-17T13:37:15.192Z,100460.40
2023-03-17T13:40:17.860Z,100460.00
2023-03-17T13:43:17.530Z,100454.60
2023-03-17T13:45:53.225Z,100449.20
2023-03-17T13:48:38.601Z,100444.00
2023-03-17T13:51:23.350Z,100440.40
2023-03-17T13:54:08.782Z,100442.00
2023-03-17T13:56:55.161Z,100446.00
2023-03-17T13:59:57.791Z,100441.60
2023-03-17T14:02:39.450Z,100448.60
2023-03-17T14:05:25.775Z,100449.80
2023-03-17T14:08:04.718Z,100446.00
2023-03-17T14:10:39.703Z,100438.40
2023-03-17T14:13:23.302Z,100436.80
2023-03-17T14:16:05.296Z,100435.60
2023-03-17T14:18:50.533Z,100434.80
2023-03-17T14:21:32.289Z,100433.80
2023-03-17T14:24:27.305Z,100434.40
2023-03-17T14:27:16.306Z,100432.40
2023-03-17T14:29:53.273Z,100429.80
2023-03-17T14:32:30.329Z,100420.00
2023-03-17T14:35:05.280Z,100424.20
2023-03-17T14:37:43.280Z,100418.80
2023-03-17T14:40:33.333Z,100420.80
2023-03-17T14:43:12.294Z,100410.80
2023-03-17T14:45:55.336Z,100411.40
2023-03-17T14:48:38.884Z,100402.80
2023-03-17T14:51:28.255Z,100403.00
2023-03-17T14:54:12.671Z,100402.00
2023-03-17T14:56:58.261Z,100398.00
2023-03-17T14:59:40.300Z,100391.20
2023-03-17T15:02:31.319Z,100387.80
2023-03-17T15:05:20.267Z,100386.40
2023-03-17T15:07:57.290Z,100388.40
2023-03-17T15:10:45.292Z,100385.60
2023-03-17T15:21:35.385Z,100383.60
2023-03-17T15:24:40.186Z,100388.20
2023-03-17T15:27:20.051Z,100385.80
2023-03-17T15:29:54.218Z,100383.80
2023-03-17T15:32:31.297Z,100374.60
2023-03-17T15:35:06.337Z,100377.60
2023-03-17T15:37:40.562Z,100382.60
2023-03-17T15:40:16.948Z,100382.80
2023-03-17T15:42:51.388Z,100382.60
2023-03-17T15:45:25.606Z,100389.60
2023-03-17T15:48:00.316Z,100389.40
2023-03-17T15:50:39.263Z,100393.40
2023-03-17T15:53:16.666Z,100394.40
2023-03-17T15:55:51.404Z,100402.60
2023-03-17T15:58:26.244Z,100400.60
2023-03-17T16:01:03.544Z,100404.40
2023-03-17T16:03:38.988Z,100404.60
2023-03-17T16:06:22.298Z,100405.60
2023-03-17T16:08:56.476Z,100414.00
2023-03-17T16:11:34.417Z,100411.80
2023-03-17T16:14:08.864Z,100415.40
2023-03-17T16:16:45.902Z,100405.40
2023-03-17T16:19:24.939Z,100399.60
2023-03-17T16:21:59.635Z,100395.40
2023-03-17T16:24:35.047Z,100402.60
2023-03-17T16:27:17.783Z,100407.80
2023-03-17T16:29:52.349Z,100408.40
2023-03-17T16:32:26.652Z,100414.80
2023-03-17T16:35:01.195Z,100419.20
2023-03-17T16:37:35.426Z,100425.00
2023-03-17T16:40:21.101Z,100425.60
2023-03-17T16:42:56.240Z,100433.00
2023-03-17T16:45:34.999Z,100439.20
2023-03-17T16:48:13.964Z,100435.40
2023-03-17T16:50:48.995Z,100432.40
2023-03-17T16:53:23.751Z,100433.20
2023-03-17T16:55:58.926Z,100434.20
2023-03-17T16:58:36.916Z,100427.00
2023-03-17T17:01:19.308Z,100427.20
2023-03-17T17:03:53.986Z,100424.60
2023-03-17T17:06:28.718Z,100422.20
2023-03-17T17:09:03.031Z,100422.00
2023-03-17T17:11:37.147Z,100431.80
2023-03-17T17:14:11.384Z,100434.00
2023-03-17T17:16:46.915Z,100435.20
2023-03-17T17:19:22.017Z,100430.60
2023-03-17T17:21:56.300Z,100433.20
2023-03-17T17:24:31.291Z,100438.40
2023-03-17T17:27:06.220Z,100441.40
2023-03-17T17:29:40.414Z,100437.00
2023-03-17T17:32:18.274Z,100438.40
2023-03-17T17:34:52.615Z,100433.60
2023-03-17T17:37:27.223Z,100435.00
2023-03-17T17:40:01.968Z,100431.20
2023-03-17T17:42:36.388Z,100436.00
2023-03-17T17:45:13.746Z,100436.80
2023-03-17T17:47:48.629Z,100438.40
2023-03-17T17:50:27.517Z,100440.20
2023-03-17T17:53:05.676Z,100441.60
2023-03-17T17:55:40.260Z,100443.80
2023-03-17T17:58:19.213Z,100441.60
2023-03-17T18:00:55.546Z,100445.80
2023-03-17T18:03:32.059Z,100450.60
2023-03-17T18:06:07.110Z,100451.80
2023-03-17T18:08:43.644Z,100450.60
2023-03-17T18:11:18.027Z,100450.20
2023-03-17T18:13:52.393Z,100446.20
2023-03-17T18:16:28.456Z,100446.80
2023-03-17T18:19:03.056Z,100452.80
2023-03-17T18:21:38.309Z,100452.20
2023-03-17T18:24:13.660Z,100442.80
2023-03-17T18:26:48.214Z,100440.80
2023-03-17T18:29:22.852Z,100439.00
2023-03-17T18:31:59.193Z,100445.40
2023-03-17T18:34:41.079Z,100440.60
2023-03-17T18:37:18.830Z,100441.00
2023-03-17T18:40:12.033Z,100446.00
2023-03-17T18:42:47.388Z,100443.80
2023-03-17T18:45:22.673Z,100441.60
2023-03-17T18:47:57.358Z,100447.40
2023-03-17T18:50:31.882Z,100443.80
2023-03-17T18:53:06.999Z,100441.00
2023-03-17T18:55:41.934Z,100444.40
2023-03-17T18:58:16.154Z,100443.40
2023-03-17T19:00:51.515Z,100446.20
2023-03-17T19:03:26.711Z,100445.00
2023-03-17T19:06:07.993Z,100448.40
2023-03-17T19:08:42.587Z,100446.60
2023-03-17T19:11:21.656Z,100448.40
2023-03-17T19:13:56.541Z,100443.40
2023-03-17T19:16:33.181Z,100443.60
2023-03-17T19:19:08.242Z,100445.00
2023-03-17T19:21:42.733Z,100441.80
2023-03-17T19:24:17.191Z,100446.20
2023-03-17T19:26:51.988Z,100440.20
2023-03-17T19:29:27.896Z,100448.00
2023-03-17T19:32:02.518Z,100451.60
2023-03-17T19:34:36.963Z,100449.60
2023-03-17T19:37:11.745Z,100444.20
2023-03-17T19:39:46.226Z,100439.60
2023-03-17T19:42:20.490Z,100443.80
2023-03-17T19:44:54.820Z,100444.40
2023-03-17T19:47:29.030Z,100445.00
2023-03-17T19:50:03.531Z,100452.60
2023-03-17T19:52:37.833Z,100445.80
2023-03-17T19:55:13.701Z,100451.20
2023-03-17T19:57:47.996Z,100451.80
2023-03-17T20:00:24.005Z,100455.00
2023-03-17T20:02:58.219Z,100452.60
2023-03-17T20:05:32.904Z,100453.20
2023-03-17T20:08:08.000Z,100457.40
2023-03-17T20:10:43.053Z,100460.80
2023-03-17T20:13:17.426Z,100461.40
2023-03-17T20:15:53.048Z,100458.00
2023-03-17T20:18:27.822Z,100457.60
2023-03-17T20:21:05.810Z,100436.80
2023-03-17T20:23:40.555Z,100446.80
2023-03-17T20:26:15.072Z,100442.40
2023-03-17T20:28:49.571Z,100445.40
2023-03-17T20:31:24.177Z,100441.40
2023-03-17T20:33:58.984Z,100438.40
2023-03-17T20:36:33.186Z,100436.60
2023-03-17T20:39:08.024Z,100434.20
2023-03-17T20:41:42.506Z,100431.40
2023-03-17T20:44:18.651Z,100435.80
2023-03-17T20:46:53.151Z,100433.00
2023-03-17T20:49:27.821Z,100429.80
2023-03-17T20:52:02.130Z,100429.80
2023-03-17T20:54:36.464Z,100434.40
2023-03-17T20:57:14.588Z,100439.40
2023-03-17T20:59:49.204Z,100443.40
2023-03-17T21:02:24.117Z,100438.20
2023-03-17T21:04:58.455Z,100444.00
2023-03-17T21:07:32.731Z,100444.80
2023-03-17T21:10:08.373Z,100441.00
2023-03-17T21:12:43.032Z,100444.00
2023-03-17T21:15:18.311Z,100437.00
2023-03-17T21:17:52.617Z,100435.80
2023-03-17T21:20:27.414Z,100433.20
2023-03-17T21:23:04.636Z,100427.60
2023-03-17T21:25:39.131Z,100423.60
2023-03-17T21:28:13.886Z,100422.40
2023-03-17T21:30:48.740Z,100421.80
2023-03-17T21:33:23.322Z,100419.40
2023-03-17T21:35:59.063Z,100407.60
2023-03-17T21:38:33.616Z,100413.60
2023-03-17T21:41:33.586Z,100415.20
2023-03-17T21:44:09.968Z,100406.40
2023-03-17T21:46:44.663Z,100412.60
2023-03-17T21:49:19.712Z,100417.00
2023-03-17T21:51:54.866Z,100417.60
2023-03-17T21:54:30.453Z,100419.60
2023-03-17T21:57:04.911Z,100420.40
2023-03-17T21:59:40.132Z,100417.60
2023-03-17T22:02:18.752Z,100419.20
2023-03-17T22:04:53.496Z,100410.40
2023-03-17T22:07:28.241Z,100403.00
2023-03-17T22:10:06.301Z,100400.60
2023-03-17T22:12:41.656Z,100397.00
2023-03-17T22:23:07.109Z,100408.40
2023-03-17T22:25:41.916Z,100408.80
2023-03-17T22:28:16.212Z,100403.00
2023-03-17T22:30:50.388Z,100406.20
2023-03-17T22:33:24.506Z,100411.00
2023-03-17T22:35:58.899Z,100410.80
2023-03-17T22:38:34.029Z,100411.40
2023-03-17T22:41:13.104Z,100411.80
2023-03-17T22:43:47.655Z,100414.60
2023-03-17T22:46:22.935Z,100406.00
2023-03-17T22:48:57.226Z,100409.00
2023-03-17T22:51:31.420Z,100403.60
2023-03-17T22:54:05.889Z,100401.80
2023-03-17T22:56:40.087Z,100395.60
2023-03-17T22:59:14.433Z,100393.00
2023-03-17T23:01:48.714Z,100390.60
2023-03-17T23:04:22.789Z,100390.60
2023-03-17T23:06:59.101Z,100392.20
2023-03-17T23:09:33.844Z,100394.00
2023-03-17T23:12:09.026Z,100392.60
2023-03-17T23:14:43.836Z,100396.00
2023-03-17T23:17:18.224Z,100398.20
2023-03-17T23:19:52.408Z,100397.20
2023-03-17T23:22:26.545Z,100390.00
2023-03-17T23:25:01.245Z,100391.20
2023-03-17T23:27:35.369Z,100391.60
2023-03-17T23:30:13.448Z,100393.00
2023-03-17T23:32:49.391Z,100385.20
2023-03-17T23:35:24.180Z,100380.40
2023-03-17T23:37:58.682Z,100383.80
2023-03-17T23:40:34.710Z,100380.80
2023-03-17T23:43:08.896Z,100389.00
2023-03-17T23:45:43.780Z,100390.00
2023-03-17T23:48:18.254Z,100390.40
2023-03-17T23:50:55.893Z,100390.60
2023-03-17T23:53:30.108Z,100396.00
2023-03-17T23:56:05.038Z,100392.00
2023-03-17T23:58:39.319Z,100387.40
